createdAt,value
2023-05-02T00:01:52.070Z,1.73
2023-05-02T00:04:24.204Z,1.50
2023-05-02T00:06:55.930Z,1.27
2023-05-02T00:09:27.511Z,1.23
2023-05-02T00:11:59.581Z,1.40
2023-05-02T00:14:31.163Z,1.52
2023-05-02T00:17:03.007Z,1.23
2023-05-02T00:19:40.114Z,1.08
2023-05-02T00:22:11.570Z,1.40
2023-05-02T00:24:43.039Z,1.50
2023-05-02T00:27:14.533Z,1.83
2023-05-02T00:29:47.806Z,1.50
2023-05-02T00:32:19.374Z,1.48
2023-05-02T00:34:50.939Z,1.05
2023-05-02T00:37:26.334Z,1.38
2023-05-02T00:39:58.617Z,1.60
2023-05-02T00:42:31.585Z,1.38
2023-05-02T00:45:06.323Z,1.30
2023-05-02T00:47:38.157Z,1.27
2023-05-02T00:50:09.950Z,1.35
2023-05-02T00:52:41.911Z,1.35
2023-05-02T00:55:13.381Z,1.05
2023-05-02T00:57:44.926Z,1.20
2023-05-02T01:00:16.472Z,1.42
2023-05-02T01:02:53.366Z,1.77
2023-05-02T01:05:34.025Z,1.10
2023-05-02T01:08:19.245Z,1.40
2023-05-02T01:11:13.205Z,1.45
2023-05-02T01:13:46.975Z,1.10
2023-05-02T01:16:20.315Z,1.17
2023-05-02T01:18:52.654Z,1.10
2023-05-02T01:21:24.830Z,1.20
2023-05-02T01:24:32.005Z,1.40
2023-05-02T01:27:24.972Z,1.40
2023-05-02T01:29:59.347Z,1.60
2023-05-02T01:32:34.979Z,1.00
2023-05-02T01:35:08.503Z,1.10
2023-05-02T01:37:43.123Z,1.27
2023-05-02T01:40:20.521Z,1.15
2023-05-02T01:42:53.640Z,1.50
2023-05-02T01:45:26.167Z,1.23
2023-05-02T01:47:58.527Z,1.77
2023-05-02T01:53:03.701Z,1.13
2023-05-02T01:55:38.438Z,1.38
2023-05-02T01:58:11.223Z,1.60
2023-05-02T02:00:45.645Z,1.17
2023-05-02T02:03:18.938Z,1.27
2023-05-02T02:05:52.978Z,1.40
2023-05-02T02:08:25.450Z,1.20
2023-05-02T02:11:07.802Z,1.08
2023-05-02T02:13:49.980Z,1.05
2023-05-02T02:16:25.346Z,1.50
2023-05-02T02:19:04.453Z,0.98
2023-05-02T02:21:36.600Z,1.00
2023-05-02T02:24:09.278Z,1.20
2023-05-02T02:26:41.115Z,0.93
2023-05-02T02:29:12.584Z,1.48
2023-05-02T02:31:43.993Z,1.20
2023-05-02T02:34:15.817Z,1.30
2023-05-02T02:37:04.600Z,1.10
2023-05-02T02:39:51.496Z,1.17
2023-05-02T02:42:39.872Z,1.25
2023-05-02T02:45:17.448Z,1.20
2023-05-02T02:48:07.455Z,0.90
2023-05-02T02:51:19.220Z,1.30
2023-05-02T02:54:25.427Z,1.40
2023-05-02T02:57:04.576Z,0.82
2023-05-02T02:59:42.320Z,1.10
2023-05-02T03:02:18.734Z,1.25
2023-05-02T03:04:51.962Z,0.90
2023-05-02T03:07:23.771Z,1.50
2023-05-02T03:09:55.617Z,1.50
2023-05-02T03:12:27.158Z,1.17
2023-05-02T03:15:31.406Z,1.42
2023-05-02T03:18:02.954Z,1.10
2023-05-02T03:20:34.468Z,1.00
2023-05-02T03:23:06.303Z,1.08
2023-05-02T03:25:37.872Z,1.38
2023-05-02T03:28:09.407Z,1.20
2023-05-02T03:30:41.901Z,1.10
2023-05-02T03:33:13.564Z,1.15
2023-05-02T03:35:45.187Z,1.33
2023-05-02T03:38:16.754Z,0.88
2023-05-02T03:40:48.214Z,1.10
2023-05-02T03:43:19.716Z,1.30
2023-05-02T03:45:51.523Z,0.90
2023-05-02T03:48:23.167Z,1.17
2023-05-02T03:50:55.219Z,1.17
2023-05-02T03:53:27.019Z,1.40
2023-05-02T03:55:58.783Z,1.10
2023-05-02T03:58:30.418Z,1.65
2023-05-02T04:01:02.300Z,1.30
2023-05-02T04:03:33.874Z,1.55
2023-05-02T04:06:05.559Z,1.20
2023-05-02T04:08:37.118Z,1.17
2023-05-02T04:11:08.721Z,1.30
2023-05-02T04:13:40.263Z,1.65
2023-05-02T04:16:11.853Z,1.52
2023-05-02T04:18:43.460Z,1.20
2023-05-02T04:21:15.013Z,1.33
2023-05-02T04:23:46.496Z,1.00
2023-05-02T04:26:17.924Z,1.63
2023-05-02T04:28:49.392Z,1.53
2023-05-02T04:31:21.167Z,1.42
2023-05-02T04:33:53.183Z,1.35
2023-05-02T04:36:26.222Z,1.30
2023-05-02T04:38:57.710Z,1.40
2023-05-02T04:41:29.216Z,1.47
2023-05-02T04:44:00.655Z,1.37
2023-05-02T04:46:32.138Z,1.23
2023-05-02T04:49:03.598Z,1.37
2023-05-02T04:51:35.113Z,1.37
2023-05-02T04:54:06.783Z,1.65
2023-05-02T04:56:38.574Z,1.63
2023-05-02T04:59:12.572Z,1.42
2023-05-02T05:01:45.362Z,1.58
2023-05-02T05:04:17.145Z,1.77
2023-05-02T05:06:49.354Z,1.73
2023-05-02T05:09:21.102Z,1.65
2023-05-02T05:11:52.643Z,1.15
2023-05-02T05:14:24.335Z,1.67
2023-05-02T05:16:55.796Z,1.50
2023-05-02T05:19:27.896Z,1.47
2023-05-02T05:21:59.368Z,1.60
2023-05-02T05:24:30.834Z,1.43
2023-05-02T05:27:02.903Z,1.40
2023-05-02T05:29:34.397Z,2.17
2023-05-02T05:32:06.373Z,1.63
2023-05-02T05:34:37.982Z,1.75
2023-05-02T05:37:09.553Z,1.63
2023-05-02T05:39:41.266Z,1.67
2023-05-02T05:42:13.134Z,1.40
2023-05-02T05:44:44.626Z,1.65
2023-05-02T05:47:22.044Z,1.50
2023-05-02T05:49:54.481Z,1.85
2023-05-02T05:54:57.631Z,1.77
2023-05-02T05:57:29.105Z,2.03
2023-05-02T06:00:00.841Z,1.90
2023-05-02T06:02:32.707Z,1.58
2023-05-02T06:05:04.582Z,1.52
2023-05-02T06:07:36.313Z,1.80
2023-05-02T06:10:09.212Z,1.67
2023-05-02T06:12:40.972Z,2.03
2023-05-02T06:15:12.476Z,1.92
2023-05-02T06:17:44.449Z,1.97
2023-05-02T06:20:16.712Z,2.22
2023-05-02T06:22:50.218Z,2.28
2023-05-02T06:25:21.830Z,2.25
2023-05-02T06:27:53.396Z,2.22
2023-05-02T06:30:25.068Z,2.28
2023-05-02T06:32:56.995Z,1.85
2023-05-02T06:35:28.654Z,2.53
2023-05-02T06:38:00.435Z,2.65
2023-05-02T06:40:32.002Z,2.17
2023-05-02T06:43:03.548Z,3.53
2023-05-02T06:45:35.082Z,2.58
2023-05-02T06:48:07.702Z,2.67
2023-05-02T06:50:39.574Z,2.60
2023-05-02T06:53:11.262Z,2.63
2023-05-02T06:55:44.332Z,2.83
2023-05-02T06:58:16.214Z,2.45
2023-05-02T07:00:48.815Z,2.60
2023-05-02T07:03:20.490Z,2.60
2023-05-02T07:05:51.971Z,3.08
2023-05-02T07:08:23.910Z,3.13
2023-05-02T07:10:55.477Z,2.75
2023-05-02T07:13:26.974Z,2.97
2023-05-02T07:15:58.564Z,3.10
2023-05-02T07:18:30.140Z,3.00
2023-05-02T07:21:01.756Z,2.55
2023-05-02T07:23:33.330Z,2.80
2023-05-02T07:26:07.886Z,2.90
2023-05-02T07:28:39.425Z,3.10
2023-05-02T07:31:11.290Z,3.35
2023-05-02T07:33:42.881Z,3.03
2023-05-02T07:36:14.439Z,3.20
2023-05-02T07:38:45.958Z,3.30
2023-05-02T07:41:17.461Z,3.17
2023-05-02T07:43:49.343Z,3.40
2023-05-02T07:46:21.440Z,2.92
2023-05-02T07:51:26.750Z,3.03
2023-05-02T07:53:59.097Z,2.95
2023-05-02T07:59:03.568Z,3.63
2023-05-02T08:01:36.463Z,3.33
2023-05-02T08:04:10.674Z,3.55
2023-05-02T08:06:44.797Z,3.40
2023-05-02T08:09:16.500Z,3.60
2023-05-02T08:11:48.086Z,3.80
2023-05-02T08:14:19.668Z,3.58
2023-05-02T08:16:51.280Z,3.25
2023-05-02T08:19:23.011Z,3.85
2023-05-02T08:21:55.168Z,3.70
